Terminal Aerodrome Forecast
Issued by NWS Grand Forks, ND

Home | Current Version | Previous Version | Graphics & Text | Print | Product List | Glossary On
Versions: 1 2 3 4 5 6 7 8 9 10 11 12 13 14 15 16 17 18
000
FTUS43 KFGF 231700
TAFGFK
TAF
KGFK 231736Z 2318/2418 35017KT P6SM OVC006
      TEMPO 2318/2322 4SM -SNDZ BR
     FM240000 34014KT P6SM OVC004
     FM240600 32008KT P6SM OVC005=

USA.gov is the U.S. government's official web portal to all federal, state and local government web resources and services.